Terminal Aerodrome Forecast
Issued by NWS Cleveland, OH

Home | Current Version | Previous Version | Text Only | Print | Product List | Glossary Off
Versions: 1 2 3 4 5 6 7 8 9 10 11 12 13 14 15 16 17 18 19 20 21 22 23 24 25 26 27 28 29 30

000
FTUS41 KCLE 310500
TAFCLE
TAF
KCLE 310520Z 3106/0112 VRB04KT P6SM -SHRA OVC045
      TEMPO 3107/3111 5SM -SHRA BR OVC030
     FM311100 16008KT 5SM -SHRA BR OVC030
     FM311300 12010KT P6SM VCSH OVC030
     FM311500 34012KT P6SM OVC025
     FM312000 35010KT P6SM SCT035 OVC080
     FM010200 18004KT P6SM OVC050=

USA.gov is the U.S. government's official web portal to all federal, state and local government web resources and services.